VEJS/IXW METAR and TAF weather

Enter ICAO airport designator
Station Type Date Time Source
VEJS METAR 2021/05/11 01:00 UTC NOAA

VEJS 110100Z 00000KT 2000 HZ NSC 27/23 Q1006


Station Type Date Time Source
VEJS Decoded METAR 2021/05/11 01:00 UTC NOAA

Jamshedpur, India (VEJS) 22-49N 086-11E 142M
May 10, 2021 - 09:00 PM EDT / 2021.05.11 0100 UTC
Wind: Calm:0
Visibility: 1 mile(s):0
Weather: haze
Temperature: 80 F (27 C)
Dew Point: 73 F (23 C)
Relative Humidity: 78%
Pressure (altimeter): 29.71 in. Hg (1006 hPa)
ob: VEJS 110100Z 00000KT 2000 HZ NSC 27/23 Q1006
cycle: 1

Station Type Date Time Source
VEJS TAF 2009/11/01 09:00 UTC NOAA

TAF VEJS 010900Z 0112/0121 36004KT 2500 HZ FEW020 SCT025 SCT100
BECMG 0116/0118 00000KT 2000 HZ FEW018 SCT
BECMG 0119/0121 00000KT 1600 BR

Example: see airport list